sensor_id;sensor_type;location;lat;lon;timestamp;temperature;humidity
20946;DHT22;10632;51.276;7.116;2023-07-31T00:01:57;15.10;99.90
20946;DHT22;10632;51.276;7.116;2023-07-31T00:04:24;15.10;99.90
20946;DHT22;10632;51.276;7.116;2023-07-31T00:06:51;15.10;99.90
20946;DHT22;10632;51.276;7.116;2023-07-31T00:09:18;15.10;99.90
20946;DHT22;10632;51.276;7.116;2023-07-31T00:11:48;15.10;99.90
20946;DHT22;10632;51.276;7.116;2023-07-31T00:14:15;15.20;99.90
20946;DHT22;10632;51.276;7.116;2023-07-31T00:16:43;15.10;99.90
20946;DHT22;10632;51.276;7.116;2023-07-31T00:19:13;15.20;99.90
20946;DHT22;10632;51.276;7.116;2023-07-31T00:21:39;15.10;99.90
20946;DHT22;10632;51.276;7.116;2023-07-31T00:24:06;15.20;99.90
20946;DHT22;10632;51.276;7.116;2023-07-31T00:26:36;15.10;99.90
20946;DHT22;10632;51.276;7.116;2023-07-31T00:29:03;15.10;99.90
20946;DHT22;10632;51.276;7.116;2023-07-31T00:31:30;15.10;99.90
20946;DHT22;10632;51.276;7.116;2023-07-31T00:33:58;15.10;99.90
20946;DHT22;10632;51.276;7.116;2023-07-31T00:36:25;15.10;99.90
20946;DHT22;10632;51.276;7.116;2023-07-31T00:38:52;15.10;99.90
20946;DHT22;10632;51.276;7.116;2023-07-31T00:41:19;15.10;99.90
20946;DHT22;10632;51.276;7.116;2023-07-31T00:43:47;15.10;99.90
20946;DHT22;10632;51.276;7.116;2023-07-31T00:46:14;15.10;99.90
20946;DHT22;10632;51.276;7.116;2023-07-31T00:48:41;15.10;99.90
20946;DHT22;10632;51.276;7.116;2023-07-31T00:51:10;15.10;99.90
20946;DHT22;10632;51.276;7.116;2023-07-31T00:53:38;15.10;99.90
20946;DHT22;10632;51.276;7.116;2023-07-31T00:56:05;15.10;99.90
20946;DHT22;10632;51.276;7.116;2023-07-31T00:58:32;15.10;99.90
20946;DHT22;10632;51.276;7.116;2023-07-31T01:00:59;15.10;99.90
20946;DHT22;10632;51.276;7.116;2023-07-31T01:03:26;15.10;99.90
20946;DHT22;10632;51.276;7.116;2023-07-31T01:06:01;15.10;99.90
20946;DHT22;10632;51.276;7.116;2023-07-31T01:08:40;15.10;99.90
20946;DHT22;10632;51.276;7.116;2023-07-31T01:11:11;15.10;99.90
20946;DHT22;10632;51.276;7.116;2023-07-31T01:13:41;15.10;99.90
20946;DHT22;10632;51.276;7.116;2023-07-31T01:16:08;15.10;99.90
20946;DHT22;10632;51.276;7.116;2023-07-31T01:18:35;15.10;99.90
20946;DHT22;10632;51.276;7.116;2023-07-31T01:21:13;15.10;99.90
20946;DHT22;10632;51.276;7.116;2023-07-31T01:26:56;15.10;99.90
20946;DHT22;10632;51.276;7.116;2023-07-31T01:29:29;15.10;99.90
20946;DHT22;10632;51.276;7.116;2023-07-31T01:32:01;15.10;99.90
20946;DHT22;10632;51.276;7.116;2023-07-31T01:34:29;15.10;99.90
20946;DHT22;10632;51.276;7.116;2023-07-31T01:36:57;15.10;99.90
20946;DHT22;10632;51.276;7.116;2023-07-31T01:39:24;15.10;99.90
20946;DHT22;10632;51.276;7.116;2023-07-31T01:41:53;15.10;99.90
20946;DHT22;10632;51.276;7.116;2023-07-31T01:44:20;15.10;99.90
20946;DHT22;10632;51.276;7.116;2023-07-31T01:46:47;15.00;99.90
20946;DHT22;10632;51.276;7.116;2023-07-31T01:49:14;15.10;99.90
20946;DHT22;10632;51.276;7.116;2023-07-31T01:51:44;15.00;99.90
20946;DHT22;10632;51.276;7.116;2023-07-31T01:54:11;15.00;99.90
20946;DHT22;10632;51.276;7.116;2023-07-31T01:56:38;15.00;99.90
20946;DHT22;10632;51.276;7.116;2023-07-31T01:59:07;15.00;99.90
20946;DHT22;10632;51.276;7.116;2023-07-31T02:01:34;15.00;99.90
20946;DHT22;10632;51.276;7.116;2023-07-31T02:04:01;15.00;99.90
20946;DHT22;10632;51.276;7.116;2023-07-31T02:06:28;15.00;99.90
20946;DHT22;10632;51.276;7.116;2023-07-31T02:08:55;15.00;99.90
20946;DHT22;10632;51.276;7.116;2023-07-31T02:11:22;15.00;99.90
20946;DHT22;10632;51.276;7.116;2023-07-31T02:13:49;15.00;99.90
20946;DHT22;10632;51.276;7.116;2023-07-31T02:16:17;15.00;99.90
20946;DHT22;10632;51.276;7.116;2023-07-31T02:18:44;15.00;99.90
20946;DHT22;10632;51.276;7.116;2023-07-31T02:21:11;15.00;99.90
20946;DHT22;10632;51.276;7.116;2023-07-31T02:23:38;15.00;99.90
20946;DHT22;10632;51.276;7.116;2023-07-31T02:26:05;14.90;99.90
20946;DHT22;10632;51.276;7.116;2023-07-31T02:28:31;14.90;99.90
20946;DHT22;10632;51.276;7.116;2023-07-31T02:30:58;15.00;99.90
20946;DHT22;10632;51.276;7.116;2023-07-31T02:33:26;14.90;99.90
20946;DHT22;10632;51.276;7.116;2023-07-31T02:35:53;15.00;99.90
20946;DHT22;10632;51.276;7.116;2023-07-31T02:38:20;14.90;99.90
20946;DHT22;10632;51.276;7.116;2023-07-31T02:40:47;14.90;99.90
20946;DHT22;10632;51.276;7.116;2023-07-31T02:43:14;15.00;99.90
20946;DHT22;10632;51.276;7.116;2023-07-31T02:45:41;15.00;99.90
20946;DHT22;10632;51.276;7.116;2023-07-31T02:48:08;15.00;99.90
20946;DHT22;10632;51.276;7.116;2023-07-31T02:50:37;15.00;99.90
20946;DHT22;10632;51.276;7.116;2023-07-31T02:53:04;15.00;99.90
20946;DHT22;10632;51.276;7.116;2023-07-31T02:55:31;15.00;99.90
20946;DHT22;10632;51.276;7.116;2023-07-31T02:57:58;15.00;99.90
20946;DHT22;10632;51.276;7.116;2023-07-31T03:00:25;15.00;99.90
20946;DHT22;10632;51.276;7.116;2023-07-31T03:02:52;15.00;99.90
20946;DHT22;10632;51.276;7.116;2023-07-31T03:05:18;15.00;99.90
20946;DHT22;10632;51.276;7.116;2023-07-31T03:07:47;15.00;99.90
20946;DHT22;10632;51.276;7.116;2023-07-31T03:10:14;15.00;99.90
20946;DHT22;10632;51.276;7.116;2023-07-31T03:12:41;15.00;99.90
20946;DHT22;10632;51.276;7.116;2023-07-31T03:15:08;15.10;99.90
20946;DHT22;10632;51.276;7.116;2023-07-31T03:17:35;15.10;99.90
20946;DHT22;10632;51.276;7.116;2023-07-31T03:20:03;15.10;99.90
20946;DHT22;10632;51.276;7.116;2023-07-31T03:22:30;15.10;99.90
20946;DHT22;10632;51.276;7.116;2023-07-31T03:24:59;15.10;99.90
20946;DHT22;10632;51.276;7.116;2023-07-31T03:27:26;15.10;99.90
20946;DHT22;10632;51.276;7.116;2023-07-31T03:29:53;15.20;99.90
20946;DHT22;10632;51.276;7.116;2023-07-31T03:32:20;15.20;99.90
20946;DHT22;10632;51.276;7.116;2023-07-31T03:34:46;15.20;99.90
20946;DHT22;10632;51.276;7.116;2023-07-31T03:37:14;15.20;99.90
20946;DHT22;10632;51.276;7.116;2023-07-31T03:39:41;15.20;99.90
20946;DHT22;10632;51.276;7.116;2023-07-31T03:42:12;15.20;99.90
20946;DHT22;10632;51.276;7.116;2023-07-31T03:44:39;15.20;99.90
20946;DHT22;10632;51.276;7.116;2023-07-31T03:47:06;15.20;99.90
20946;DHT22;10632;51.276;7.116;2023-07-31T03:49:32;15.30;99.90
20946;DHT22;10632;51.276;7.116;2023-07-31T03:52:00;15.30;99.90
20946;DHT22;10632;51.276;7.116;2023-07-31T03:54:26;15.30;99.90
20946;DHT22;10632;51.276;7.116;2023-07-31T03:56:54;15.30;99.90
20946;DHT22;10632;51.276;7.116;2023-07-31T03:59:23;15.30;99.90
20946;DHT22;10632;51.276;7.116;2023-07-31T04:01:50;15.30;99.90
20946;DHT22;10632;51.276;7.116;2023-07-31T04:04:19;15.30;99.90
20946;DHT22;10632;51.276;7.116;2023-07-31T04:06:46;15.30;99.90
20946;DHT22;10632;51.276;7.116;2023-07-31T04:09:14;15.30;99.90
20946;DHT22;10632;51.276;7.116;2023-07-31T04:11:49;15.30;99.90
20946;DHT22;10632;51.276;7.116;2023-07-31T04:14:17;15.30;99.90
20946;DHT22;10632;51.276;7.116;2023-07-31T04:16:45;15.30;99.90
20946;DHT22;10632;51.276;7.116;2023-07-31T04:19:12;15.40;99.90
20946;DHT22;10632;51.276;7.116;2023-07-31T04:21:42;15.40;99.90
20946;DHT22;10632;51.276;7.116;2023-07-31T04:24:09;15.40;99.90
20946;DHT22;10632;51.276;7.116;2023-07-31T04:26:36;15.40;99.90
20946;DHT22;10632;51.276;7.116;2023-07-31T04:29:03;15.40;99.90
20946;DHT22;10632;51.276;7.116;2023-07-31T04:31:30;15.40;99.90
20946;DHT22;10632;51.276;7.116;2023-07-31T04:33:58;15.40;99.90
20946;DHT22;10632;51.276;7.116;2023-07-31T04:36:26;15.40;99.90
20946;DHT22;10632;51.276;7.116;2023-07-31T04:38:52;15.40;99.90
20946;DHT22;10632;51.276;7.116;2023-07-31T04:41:19;15.40;99.90
20946;DHT22;10632;51.276;7.116;2023-07-31T04:43:47;15.40;99.90
20946;DHT22;10632;51.276;7.116;2023-07-31T04:46:13;15.40;99.90
20946;DHT22;10632;51.276;7.116;2023-07-31T04:48:40;15.40;99.90
20946;DHT22;10632;51.276;7.116;2023-07-31T04:51:08;15.40;99.90
20946;DHT22;10632;51.276;7.116;2023-07-31T04:53:36;15.30;99.90
20946;DHT22;10632;51.276;7.116;2023-07-31T04:56:03;15.40;99.90
20946;DHT22;10632;51.276;7.116;2023-07-31T04:58:30;15.40;99.90
20946;DHT22;10632;51.276;7.116;2023-07-31T05:00:57;15.30;99.90
20946;DHT22;10632;51.276;7.116;2023-07-31T05:03:24;15.40;99.90
20946;DHT22;10632;51.276;7.116;2023-07-31T05:05:51;15.30;99.90
20946;DHT22;10632;51.276;7.116;2023-07-31T05:08:19;15.30;99.90
20946;DHT22;10632;51.276;7.116;2023-07-31T05:10:46;15.40;99.90
20946;DHT22;10632;51.276;7.116;2023-07-31T05:13:13;15.40;99.90
20946;DHT22;10632;51.276;7.116;2023-07-31T05:15:41;15.40;99.90
20946;DHT22;10632;51.276;7.116;2023-07-31T05:18:08;15.40;99.90
20946;DHT22;10632;51.276;7.116;2023-07-31T05:20:34;15.40;99.90
20946;DHT22;10632;51.276;7.116;2023-07-31T05:23:02;15.50;99.90
20946;DHT22;10632;51.276;7.116;2023-07-31T05:25:30;15.50;99.90
20946;DHT22;10632;51.276;7.116;2023-07-31T05:27:59;15.50;99.90
20946;DHT22;10632;51.276;7.116;2023-07-31T05:30:26;15.50;99.90
20946;DHT22;10632;51.276;7.116;2023-07-31T05:32:53;15.50;99.90
20946;DHT22;10632;51.276;7.116;2023-07-31T05:35:20;15.60;99.90
20946;DHT22;10632;51.276;7.116;2023-07-31T05:37:47;15.60;99.90
20946;DHT22;10632;51.276;7.116;2023-07-31T05:40:14;15.60;99.90
20946;DHT22;10632;51.276;7.116;2023-07-31T05:42:43;15.60;99.90
20946;DHT22;10632;51.276;7.116;2023-07-31T05:45:10;15.60;99.90
20946;DHT22;10632;51.276;7.116;2023-07-31T05:47:38;15.60;99.90
20946;DHT22;10632;51.276;7.116;2023-07-31T05:50:05;15.60;99.90
20946;DHT22;10632;51.276;7.116;2023-07-31T05:52:32;15.60;99.90
20946;DHT22;10632;51.276;7.116;2023-07-31T05:54:59;15.70;99.90
20946;DHT22;10632;51.276;7.116;2023-07-31T05:57:26;15.60;99.90
20946;DHT22;10632;51.276;7.116;2023-07-31T05:59:55;15.60;99.90
20946;DHT22;10632;51.276;7.116;2023-07-31T06:02:21;15.60;99.90
20946;DHT22;10632;51.276;7.116;2023-07-31T06:04:49;15.70;99.90
20946;DHT22;10632;51.276;7.116;2023-07-31T06:07:16;15.70;99.90
20946;DHT22;10632;51.276;7.116;2023-07-31T06:09:42;15.70;99.90
20946;DHT22;10632;51.276;7.116;2023-07-31T06:12:09;15.70;99.90
20946;DHT22;10632;51.276;7.116;2023-07-31T06:14:37;15.70;99.90
20946;DHT22;10632;51.276;7.116;2023-07-31T06:17:05;15.70;99.90
20946;DHT22;10632;51.276;7.116;2023-07-31T06:19:32;15.70;99.90
20946;DHT22;10632;51.276;7.116;2023-07-31T06:21:59;15.70;99.90
20946;DHT22;10632;51.276;7.116;2023-07-31T06:24:26;15.70;99.90
20946;DHT22;10632;51.276;7.116;2023-07-31T06:26:56;15.70;99.90
20946;DHT22;10632;51.276;7.116;2023-07-31T06:29:23;15.70;99.90
20946;DHT22;10632;51.276;7.116;2023-07-31T06:31:50;15.70;99.90
20946;DHT22;10632;51.276;7.116;2023-07-31T06:34:18;15.80;99.90
20946;DHT22;10632;51.276;7.116;2023-07-31T06:36:45;15.70;99.90
20946;DHT22;10632;51.276;7.116;2023-07-31T06:39:12;15.70;99.90
20946;DHT22;10632;51.276;7.116;2023-07-31T06:41:39;15.70;99.90
20946;DHT22;10632;51.276;7.116;2023-07-31T06:44:06;15.70;99.90
20946;DHT22;10632;51.276;7.116;2023-07-31T06:46:32;15.70;99.90
20946;DHT22;10632;51.276;7.116;2023-07-31T06:49:03;15.70;99.90
20946;DHT22;10632;51.276;7.116;2023-07-31T06:51:34;15.70;99.90
20946;DHT22;10632;51.276;7.116;2023-07-31T06:54:04;15.60;99.90
20946;DHT22;10632;51.276;7.116;2023-07-31T06:56:31;15.70;99.90
20946;DHT22;10632;51.276;7.116;2023-07-31T06:58:58;15.60;99.90
20946;DHT22;10632;51.276;7.116;2023-07-31T07:01:24;15.60;99.90
20946;DHT22;10632;51.276;7.116;2023-07-31T07:03:51;15.50;99.90
20946;DHT22;10632;51.276;7.116;2023-07-31T07:06:18;15.50;99.90
20946;DHT22;10632;51.276;7.116;2023-07-31T07:08:50;15.50;99.90
20946;DHT22;10632;51.276;7.116;2023-07-31T07:11:17;15.50;99.90
20946;DHT22;10632;51.276;7.116;2023-07-31T07:13:43;15.50;99.90
20946;DHT22;10632;51.276;7.116;2023-07-31T07:16:10;15.50;99.90
20946;DHT22;10632;51.276;7.116;2023-07-31T07:18:37;15.50;99.90
20946;DHT22;10632;51.276;7.116;2023-07-31T07:21:04;15.50;99.90
20946;DHT22;10632;51.276;7.116;2023-07-31T07:23:31;15.50;99.90
20946;DHT22;10632;51.276;7.116;2023-07-31T07:25:59;15.50;99.90
20946;DHT22;10632;51.276;7.116;2023-07-31T07:28:26;15.50;99.90
20946;DHT22;10632;51.276;7.116;2023-07-31T07:30:54;15.50;99.90
20946;DHT22;10632;51.276;7.116;2023-07-31T07:33:20;15.50;99.90
20946;DHT22;10632;51.276;7.116;2023-07-31T07:35:47;15.50;99.90
20946;DHT22;10632;51.276;7.116;2023-07-31T07:38:14;15.40;99.90
20946;DHT22;10632;51.276;7.116;2023-07-31T07:40:41;15.50;99.90
20946;DHT22;10632;51.276;7.116;2023-07-31T07:43:09;15.40;99.90
20946;DHT22;10632;51.276;7.116;2023-07-31T07:45:36;15.40;99.90
20946;DHT22;10632;51.276;7.116;2023-07-31T07:48:04;15.40;99.90
20946;DHT22;10632;51.276;7.116;2023-07-31T07:50:32;15.40;99.90
20946;DHT22;10632;51.276;7.116;2023-07-31T07:53:02;15.40;99.90
20946;DHT22;10632;51.276;7.116;2023-07-31T07:55:29;15.40;99.90
20946;DHT22;10632;51.276;7.116;2023-07-31T07:57:56;15.40;99.90
20946;DHT22;10632;51.276;7.116;2023-07-31T08:00:24;15.40;99.90
20946;DHT22;10632;51.276;7.116;2023-07-31T08:02:51;15.50;99.90
20946;DHT22;10632;51.276;7.116;2023-07-31T08:05:18;15.50;99.90
20946;DHT22;10632;51.276;7.116;2023-07-31T08:07:45;15.40;99.90
20946;DHT22;10632;51.276;7.116;2023-07-31T08:10:12;15.50;99.90
20946;DHT22;10632;51.276;7.116;2023-07-31T08:12:38;15.50;99.90
20946;DHT22;10632;51.276;7.116;2023-07-31T08:15:06;15.50;99.90
20946;DHT22;10632;51.276;7.116;2023-07-31T08:17:35;15.50;99.90
20946;DHT22;10632;51.276;7.116;2023-07-31T08:20:02;15.40;99.90
20946;DHT22;10632;51.276;7.116;2023-07-31T08:22:29;15.40;99.90
20946;DHT22;10632;51.276;7.116;2023-07-31T08:24:55;15.40;99.90
20946;DHT22;10632;51.276;7.116;2023-07-31T08:27:22;15.40;99.90
20946;DHT22;10632;51.276;7.116;2023-07-31T08:29:49;15.40;99.90
20946;DHT22;10632;51.276;7.116;2023-07-31T08:32:18;15.40;99.90
20946;DHT22;10632;51.276;7.116;2023-07-31T08:34:46;15.40;99.90
20946;DHT22;10632;51.276;7.116;2023-07-31T08:37:13;15.40;99.90
20946;DHT22;10632;51.276;7.116;2023-07-31T08:39:41;15.50;99.90
20946;DHT22;10632;51.276;7.116;2023-07-31T08:42:10;15.40;99.90
20946;DHT22;10632;51.276;7.116;2023-07-31T08:44:37;15.40;99.90
20946;DHT22;10632;51.276;7.116;2023-07-31T08:47:08;15.40;99.90
20946;DHT22;10632;51.276;7.116;2023-07-31T08:49:37;15.40;99.90
20946;DHT22;10632;51.276;7.116;2023-07-31T08:52:09;15.40;99.90
20946;DHT22;10632;51.276;7.116;2023-07-31T08:54:36;15.40;99.90
20946;DHT22;10632;51.276;7.116;2023-07-31T08:57:04;15.40;99.90
20946;DHT22;10632;51.276;7.116;2023-07-31T08:59:32;15.30;99.90
20946;DHT22;10632;51.276;7.116;2023-07-31T09:02:05;15.30;99.90
20946;DHT22;10632;51.276;7.116;2023-07-31T09:04:32;15.30;99.90
20946;DHT22;10632;51.276;7.116;2023-07-31T09:07:00;15.30;99.90
20946;DHT22;10632;51.276;7.116;2023-07-31T09:09:30;15.30;99.90
20946;DHT22;10632;51.276;7.116;2023-07-31T09:11:57;15.30;99.90
20946;DHT22;10632;51.276;7.116;2023-07-31T09:14:25;15.30;99.90
20946;DHT22;10632;51.276;7.116;2023-07-31T09:16:53;15.30;99.90
20946;DHT22;10632;51.276;7.116;2023-07-31T09:19:25;15.30;99.90
20946;DHT22;10632;51.276;7.116;2023-07-31T09:21:53;15.30;99.90
20946;DHT22;10632;51.276;7.116;2023-07-31T09:24:25;15.30;99.90
20946;DHT22;10632;51.276;7.116;2023-07-31T09:26:55;15.30;99.90
20946;DHT22;10632;51.276;7.116;2023-07-31T09:29:23;15.30;99.90
20946;DHT22;10632;51.276;7.116;2023-07-31T09:31:50;15.40;99.90
20946;DHT22;10632;51.276;7.116;2023-07-31T09:34:17;15.40;99.90
20946;DHT22;10632;51.276;7.116;2023-07-31T09:36:45;15.40;99.90
20946;DHT22;10632;51.276;7.116;2023-07-31T09:39:13;15.40;99.90
20946;DHT22;10632;51.276;7.116;2023-07-31T09:41:43;15.40;99.90
20946;DHT22;10632;51.276;7.116;2023-07-31T09:44:13;15.40;99.90
20946;DHT22;10632;51.276;7.116;2023-07-31T09:46:40;15.50;99.90
20946;DHT22;10632;51.276;7.116;2023-07-31T09:49:10;15.50;99.90
20946;DHT22;10632;51.276;7.116;2023-07-31T09:51:38;15.50;99.90
20946;DHT22;10632;51.276;7.116;2023-07-31T09:54:10;15.50;99.90
20946;DHT22;10632;51.276;7.116;2023-07-31T09:56:41;15.50;99.90
20946;DHT22;10632;51.276;7.116;2023-07-31T09:59:13;15.50;99.90
20946;DHT22;10632;51.276;7.116;2023-07-31T10:01:40;15.50;99.90
20946;DHT22;10632;51.276;7.116;2023-07-31T10:04:12;15.50;99.90
20946;DHT22;10632;51.276;7.116;2023-07-31T10:06:41;15.50;99.90
20946;DHT22;10632;51.276;7.116;2023-07-31T10:09:10;15.50;99.90
20946;DHT22;10632;51.276;7.116;2023-07-31T10:11:41;15.50;99.90
20946;DHT22;10632;51.276;7.116;2023-07-31T10:14:10;15.50;99.90
20946;DHT22;10632;51.276;7.116;2023-07-31T10:16:39;15.50;99.90
20946;DHT22;10632;51.276;7.116;2023-07-31T10:19:08;15.50;99.90
20946;DHT22;10632;51.276;7.116;2023-07-31T10:21:37;15.50;99.90
20946;DHT22;10632;51.276;7.116;2023-07-31T10:24:05;15.50;99.90
20946;DHT22;10632;51.276;7.116;2023-07-31T10:26:32;15.50;99.90
20946;DHT22;10632;51.276;7.116;2023-07-31T10:29:01;15.60;99.90
20946;DHT22;10632;51.276;7.116;2023-07-31T10:31:28;15.70;99.90
20946;DHT22;10632;51.276;7.116;2023-07-31T10:33:58;15.60;99.90
20946;DHT22;10632;51.276;7.116;2023-07-31T10:36:26;15.70;99.90
20946;DHT22;10632;51.276;7.116;2023-07-31T10:38:55;15.60;99.90
20946;DHT22;10632;51.276;7.116;2023-07-31T10:41:28;15.60;99.90
20946;DHT22;10632;51.276;7.116;2023-07-31T10:43:57;15.60;99.90
20946;DHT22;10632;51.276;7.116;2023-07-31T10:46:24;15.60;99.90
20946;DHT22;10632;51.276;7.116;2023-07-31T10:49:03;15.60;99.90
20946;DHT22;10632;51.276;7.116;2023-07-31T10:51:34;15.60;99.90
20946;DHT22;10632;51.276;7.116;2023-07-31T10:54:11;15.60;99.90
20946;DHT22;10632;51.276;7.116;2023-07-31T10:56:39;15.70;99.90
20946;DHT22;10632;51.276;7.116;2023-07-31T10:59:05;15.70;99.90
20946;DHT22;10632;51.276;7.116;2023-07-31T11:01:51;15.70;99.90
20946;DHT22;10632;51.276;7.116;2023-07-31T11:04:24;15.70;99.90
20946;DHT22;10632;51.276;7.116;2023-07-31T11:06:57;15.70;99.90
20946;DHT22;10632;51.276;7.116;2023-07-31T11:09:27;15.70;99.90
20946;DHT22;10632;51.276;7.116;2023-07-31T11:11:55;15.80;99.90
20946;DHT22;10632;51.276;7.116;2023-07-31T11:14:22;15.80;99.90
20946;DHT22;10632;51.276;7.116;2023-07-31T11:16:50;15.80;99.90
20946;DHT22;10632;51.276;7.116;2023-07-31T11:19:23;15.80;99.90
20946;DHT22;10632;51.276;7.116;2023-07-31T11:21:51;15.90;99.90
20946;DHT22;10632;51.276;7.116;2023-07-31T11:24:19;15.80;99.90
20946;DHT22;10632;51.276;7.116;2023-07-31T11:26:50;15.90;99.90
20946;DHT22;10632;51.276;7.116;2023-07-31T11:29:17;15.90;99.90
20946;DHT22;10632;51.276;7.116;2023-07-31T11:31:44;15.90;99.90
20946;DHT22;10632;51.276;7.116;2023-07-31T11:34:12;15.90;99.90
20946;DHT22;10632;51.276;7.116;2023-07-31T11:36:40;15.90;99.90
20946;DHT22;10632;51.276;7.116;2023-07-31T11:39:08;16.00;99.90
20946;DHT22;10632;51.276;7.116;2023-07-31T11:41:41;15.90;99.90
20946;DHT22;10632;51.276;7.116;2023-07-31T11:44:08;16.00;99.90
20946;DHT22;10632;51.276;7.116;2023-07-31T11:46:36;16.00;99.90
20946;DHT22;10632;51.276;7.116;2023-07-31T11:49:03;16.00;99.90
20946;DHT22;10632;51.276;7.116;2023-07-31T11:51:30;16.00;99.90
20946;DHT22;10632;51.276;7.116;2023-07-31T11:53:59;16.00;99.90
20946;DHT22;10632;51.276;7.116;2023-07-31T11:56:27;16.00;99.90
20946;DHT22;10632;51.276;7.116;2023-07-31T11:58:59;16.00;99.90
20946;DHT22;10632;51.276;7.116;2023-07-31T12:01:28;16.10;99.90
20946;DHT22;10632;51.276;7.116;2023-07-31T12:03:56;16.10;99.90
20946;DHT22;10632;51.276;7.116;2023-07-31T12:06:32;16.10;99.90
20946;DHT22;10632;51.276;7.116;2023-07-31T12:09:02;16.10;99.90
20946;DHT22;10632;51.276;7.116;2023-07-31T12:11:30;16.10;99.90
20946;DHT22;10632;51.276;7.116;2023-07-31T12:13:57;16.20;99.90
20946;DHT22;10632;51.276;7.116;2023-07-31T12:16:26;16.20;99.90
20946;DHT22;10632;51.276;7.116;2023-07-31T12:18:53;16.20;99.90
20946;DHT22;10632;51.276;7.116;2023-07-31T12:21:20;16.20;99.90
20946;DHT22;10632;51.276;7.116;2023-07-31T12:23:47;16.20;99.90
20946;DHT22;10632;51.276;7.116;2023-07-31T12:26:16;16.20;99.90
20946;DHT22;10632;51.276;7.116;2023-07-31T12:28:44;16.20;99.90
20946;DHT22;10632;51.276;7.116;2023-07-31T12:31:13;16.20;99.90
20946;DHT22;10632;51.276;7.116;2023-07-31T12:33:41;16.30;99.90
20946;DHT22;10632;51.276;7.116;2023-07-31T12:36:10;16.20;99.90
20946;DHT22;10632;51.276;7.116;2023-07-31T12:38:37;16.20;99.90
20946;DHT22;10632;51.276;7.116;2023-07-31T12:41:04;16.20;99.90
20946;DHT22;10632;51.276;7.116;2023-07-31T12:43:34;16.20;99.90
20946;DHT22;10632;51.276;7.116;2023-07-31T12:46:01;16.30;99.90
20946;DHT22;10632;51.276;7.116;2023-07-31T12:48:28;16.30;99.90
20946;DHT22;10632;51.276;7.116;2023-07-31T12:50:54;16.30;99.90
20946;DHT22;10632;51.276;7.116;2023-07-31T12:53:21;16.30;99.90
20946;DHT22;10632;51.276;7.116;2023-07-31T12:55:48;16.20;99.90
20946;DHT22;10632;51.276;7.116;2023-07-31T12:58:15;16.30;99.90
20946;DHT22;10632;51.276;7.116;2023-07-31T13:00:44;16.30;99.90
20946;DHT22;10632;51.276;7.116;2023-07-31T13:03:10;16.30;99.90
20946;DHT22;10632;51.276;7.116;2023-07-31T13:05:37;16.30;99.90
20946;DHT22;10632;51.276;7.116;2023-07-31T13:08:04;16.30;99.90
20946;DHT22;10632;51.276;7.116;2023-07-31T13:10:31;16.30;99.90
20946;DHT22;10632;51.276;7.116;2023-07-31T13:13:00;16.30;99.90
20946;DHT22;10632;51.276;7.116;2023-07-31T13:15:27;16.30;99.90
20946;DHT22;10632;51.276;7.116;2023-07-31T13:17:58;16.30;99.90
20946;DHT22;10632;51.276;7.116;2023-07-31T13:20:25;16.40;99.90
20946;DHT22;10632;51.276;7.116;2023-07-31T13:22:52;16.40;99.90
20946;DHT22;10632;51.276;7.116;2023-07-31T13:25:19;16.40;99.90
20946;DHT22;10632;51.276;7.116;2023-07-31T13:27:46;16.40;99.90
20946;DHT22;10632;51.276;7.116;2023-07-31T13:30:12;16.50;99.90
20946;DHT22;10632;51.276;7.116;2023-07-31T13:32:39;16.50;99.90
20946;DHT22;10632;51.276;7.116;2023-07-31T13:35:08;16.50;99.90
20946;DHT22;10632;51.276;7.116;2023-07-31T13:37:37;16.50;99.90
20946;DHT22;10632;51.276;7.116;2023-07-31T13:40:04;16.50;99.90
20946;DHT22;10632;51.276;7.116;2023-07-31T13:42:32;16.50;99.90
20946;DHT22;10632;51.276;7.116;2023-07-31T13:44:59;16.50;99.90
20946;DHT22;10632;51.276;7.116;2023-07-31T13:47:26;16.50;99.90
20946;DHT22;10632;51.276;7.116;2023-07-31T13:49:53;16.50;99.90
20946;DHT22;10632;51.276;7.116;2023-07-31T13:52:21;16.60;99.90
20946;DHT22;10632;51.276;7.116;2023-07-31T13:54:48;16.60;99.90
20946;DHT22;10632;51.276;7.116;2023-07-31T13:57:14;16.60;99.90
20946;DHT22;10632;51.276;7.116;2023-07-31T13:59:42;16.70;99.90
20946;DHT22;10632;51.276;7.116;2023-07-31T14:02:09;16.70;99.90
20946;DHT22;10632;51.276;7.116;2023-07-31T14:04:36;16.70;99.90
20946;DHT22;10632;51.276;7.116;2023-07-31T14:07:03;16.70;99.90
20946;DHT22;10632;51.276;7.116;2023-07-31T14:09:34;16.80;99.90
20946;DHT22;10632;51.276;7.116;2023-07-31T14:12:01;16.80;99.90
20946;DHT22;10632;51.276;7.116;2023-07-31T14:14:31;16.80;99.90
20946;DHT22;10632;51.276;7.116;2023-07-31T14:16:59;16.90;99.90
20946;DHT22;10632;51.276;7.116;2023-07-31T14:19:26;16.80;99.90
20946;DHT22;10632;51.276;7.116;2023-07-31T14:21:53;16.90;99.90
20946;DHT22;10632;51.276;7.116;2023-07-31T14:24:23;16.90;99.90
20946;DHT22;10632;51.276;7.116;2023-07-31T14:26:51;16.90;99.90
20946;DHT22;10632;51.276;7.116;2023-07-31T14:29:18;16.90;99.90
20946;DHT22;10632;51.276;7.116;2023-07-31T14:31:45;16.90;99.90
20946;DHT22;10632;51.276;7.116;2023-07-31T14:34:12;16.90;99.90
20946;DHT22;10632;51.276;7.116;2023-07-31T14:36:39;17.00;99.90
20946;DHT22;10632;51.276;7.116;2023-07-31T14:39:05;17.00;99.90
20946;DHT22;10632;51.276;7.116;2023-07-31T14:41:32;17.00;99.90
20946;DHT22;10632;51.276;7.116;2023-07-31T14:44:02;17.00;99.90
20946;DHT22;10632;51.276;7.116;2023-07-31T14:46:29;17.00;99.90
20946;DHT22;10632;51.276;7.116;2023-07-31T14:48:56;17.00;99.90
20946;DHT22;10632;51.276;7.116;2023-07-31T14:51:23;17.00;99.90
20946;DHT22;10632;51.276;7.116;2023-07-31T14:53:50;17.00;99.90
20946;DHT22;10632;51.276;7.116;2023-07-31T14:56:17;17.00;99.90
20946;DHT22;10632;51.276;7.116;2023-07-31T14:58:43;17.00;99.90
20946;DHT22;10632;51.276;7.116;2023-07-31T15:01:12;17.00;99.90
20946;DHT22;10632;51.276;7.116;2023-07-31T15:03:39;17.10;99.90
20946;DHT22;10632;51.276;7.116;2023-07-31T15:06:05;17.10;99.90
20946;DHT22;10632;51.276;7.116;2023-07-31T15:08:33;17.10;99.90
20946;DHT22;10632;51.276;7.116;2023-07-31T15:11:05;17.20;99.90
20946;DHT22;10632;51.276;7.116;2023-07-31T15:13:32;17.20;99.90
20946;DHT22;10632;51.276;7.116;2023-07-31T15:15:59;17.30;99.90
20946;DHT22;10632;51.276;7.116;2023-07-31T15:18:27;17.30;99.90
20946;DHT22;10632;51.276;7.116;2023-07-31T15:20:54;17.30;99.90
20946;DHT22;10632;51.276;7.116;2023-07-31T15:23:21;17.40;99.90
20946;DHT22;10632;51.276;7.116;2023-07-31T15:25:49;17.40;99.90
20946;DHT22;10632;51.276;7.116;2023-07-31T15:28:16;17.40;99.90
20946;DHT22;10632;51.276;7.116;2023-07-31T15:30:43;17.40;99.90
20946;DHT22;10632;51.276;7.116;2023-07-31T15:33:10;17.40;99.90
20946;DHT22;10632;51.276;7.116;2023-07-31T15:35:38;17.40;99.90
20946;DHT22;10632;51.276;7.116;2023-07-31T15:38:06;17.50;99.90